sensor_id;sensor_type;location;lat;lon;timestamp;pressure;altitude;pressure_sealevel;temperature;humidity
10462;BME280;5278;42.656;23.374;2023-04-06T00:00:48;94386.31;;;1.71;79.99
10462;BME280;5278;42.656;23.374;2023-04-06T00:03:16;94384.47;;;1.73;79.38
10462;BME280;5278;42.656;23.374;2023-04-06T00:05:43;94379.63;;;1.80;78.75
10462;BME280;5278;42.656;23.374;2023-04-06T00:08:12;94372.53;;;1.83;78.88
10462;BME280;5278;42.656;23.374;2023-04-06T00:10:40;94367.78;;;1.79;79.19
10462;BME280;5278;42.656;23.374;2023-04-06T00:13:07;94374.00;;;1.86;78.94
10462;BME280;5278;42.656;23.374;2023-04-06T00:15:35;94361.06;;;1.87;78.99
10462;BME280;5278;42.656;23.374;2023-04-06T00:18:02;94332.97;;;1.66;78.05
10462;BME280;5278;42.656;23.374;2023-04-06T00:20:29;94373.50;;;1.92;78.54
10462;BME280;5278;42.656;23.374;2023-04-06T00:22:56;94361.88;;;1.88;78.79
10462;BME280;5278;42.656;23.374;2023-04-06T00:25:24;94370.50;;;1.87;79.27
10462;BME280;5278;42.656;23.374;2023-04-06T00:27:51;94357.81;;;1.85;78.76
10462;BME280;5278;42.656;23.374;2023-04-06T00:30:18;94183.97;;;0.83;78.64
10462;BME280;5278;42.656;23.374;2023-04-06T00:32:46;94360.28;;;1.96;78.15
10462;BME280;5278;42.656;23.374;2023-04-06T00:35:15;94362.75;;;1.98;78.54
10462;BME280;5278;42.656;23.374;2023-04-06T00:37:42;94358.16;;;2.01;78.32
10462;BME280;5278;42.656;23.374;2023-04-06T00:40:10;94365.97;;;2.00;78.39
10462;BME280;5278;42.656;23.374;2023-04-06T00:42:38;94356.00;;;1.97;78.62
10462;BME280;5278;42.656;23.374;2023-04-06T00:45:07;94317.41;;;1.79;78.21
10462;BME280;5278;42.656;23.374;2023-04-06T00:47:34;94343.97;;;1.88;79.31
10462;BME280;5278;42.656;23.374;2023-04-06T00:50:03;94339.25;;;1.93;78.84
10462;BME280;5278;42.656;23.374;2023-04-06T00:52:30;94350.88;;;1.97;78.45
10462;BME280;5278;42.656;23.374;2023-04-06T00:54:58;94349.78;;;1.99;78.54
10462;BME280;5278;42.656;23.374;2023-04-06T00:57:25;94345.09;;;2.04;78.44
10462;BME280;5278;42.656;23.374;2023-04-06T00:59:56;94354.81;;;2.10;78.01
10462;BME280;5278;42.656;23.374;2023-04-06T01:02:23;94388.53;;;2.15;77.73
10462;BME280;5278;42.656;23.374;2023-04-06T01:04:51;94353.38;;;2.17;78.06
10462;BME280;5278;42.656;23.374;2023-04-06T01:07:19;94351.34;;;2.21;77.63
10462;BME280;5278;42.656;23.374;2023-04-06T01:09:46;94350.53;;;2.21;77.62
10462;BME280;5278;42.656;23.374;2023-04-06T01:12:14;94348.25;;;2.27;76.84
10462;BME280;5278;42.656;23.374;2023-04-06T01:14:42;94322.59;;;1.68;76.65
10462;BME280;5278;42.656;23.374;2023-04-06T01:17:12;94317.75;;;2.14;77.74
10462;BME280;5278;42.656;23.374;2023-04-06T01:19:39;94338.53;;;2.21;76.85
10462;BME280;5278;42.656;23.374;2023-04-06T01:22:06;94338.81;;;2.18;77.55
10462;BME280;5278;42.656;23.374;2023-04-06T01:24:35;94329.63;;;2.15;76.61
10462;BME280;5278;42.656;23.374;2023-04-06T01:27:02;94327.31;;;2.12;77.09
10462;BME280;5278;42.656;23.374;2023-04-06T01:29:31;94335.69;;;2.14;78.23
10462;BME280;5278;42.656;23.374;2023-04-06T01:31:58;94337.06;;;2.19;77.26
10462;BME280;5278;42.656;23.374;2023-04-06T01:34:25;94330.19;;;2.19;77.55
10462;BME280;5278;42.656;23.374;2023-04-06T01:36:52;94323.56;;;2.26;77.38
10462;BME280;5278;42.656;23.374;2023-04-06T01:39:19;94322.13;;;2.33;77.57
10462;BME280;5278;42.656;23.374;2023-04-06T01:41:50;94324.69;;;2.43;76.51
10462;BME280;5278;42.656;23.374;2023-04-06T01:44:18;94326.03;;;2.47;77.01
10462;BME280;5278;42.656;23.374;2023-04-06T01:46:45;94330.78;;;2.51;76.72
10462;BME280;5278;42.656;23.374;2023-04-06T01:49:12;94322.78;;;2.54;77.33
10462;BME280;5278;42.656;23.374;2023-04-06T01:51:39;94307.56;;;2.63;76.71
10462;BME280;5278;42.656;23.374;2023-04-06T01:54:07;94311.88;;;2.62;75.59
10462;BME280;5278;42.656;23.374;2023-04-06T01:56:34;94303.75;;;2.09;76.38
10462;BME280;5278;42.656;23.374;2023-04-06T01:59:03;94313.34;;;2.65;75.40
10462;BME280;5278;42.656;23.374;2023-04-06T02:01:32;94307.03;;;2.59;75.49
10462;BME280;5278;42.656;23.374;2023-04-06T02:03:59;94314.88;;;2.67;76.00
10462;BME280;5278;42.656;23.374;2023-04-06T02:06:26;94303.38;;;2.71;75.43
10462;BME280;5278;42.656;23.374;2023-04-06T02:08:54;94300.53;;;2.65;75.79
10462;BME280;5278;42.656;23.374;2023-04-06T02:11:21;94302.44;;;2.63;75.95
10462;BME280;5278;42.656;23.374;2023-04-06T02:13:48;94308.78;;;2.68;75.45
10462;BME280;5278;42.656;23.374;2023-04-06T02:16:17;94312.31;;;2.67;75.34
10462;BME280;5278;42.656;23.374;2023-04-06T02:18:44;94291.09;;;2.75;75.14
10462;BME280;5278;42.656;23.374;2023-04-06T02:21:11;94288.81;;;2.72;75.82
10462;BME280;5278;42.656;23.374;2023-04-06T02:23:39;94299.59;;;2.75;75.00
10462;BME280;5278;42.656;23.374;2023-04-06T02:26:06;94266.00;;;2.49;75.13
10462;BME280;5278;42.656;23.374;2023-04-06T02:28:34;94288.00;;;2.81;75.10
10462;BME280;5278;42.656;23.374;2023-04-06T02:31:01;94297.44;;;2.80;74.57
10462;BME280;5278;42.656;23.374;2023-04-06T02:33:31;94293.53;;;2.67;75.14
10462;BME280;5278;42.656;23.374;2023-04-06T02:35:58;94301.63;;;2.81;75.24
10462;BME280;5278;42.656;23.374;2023-04-06T02:38:25;94301.63;;;2.72;74.76
10462;BME280;5278;42.656;23.374;2023-04-06T02:40:52;94281.13;;;2.52;75.49
10462;BME280;5278;42.656;23.374;2023-04-06T02:43:19;94291.38;;;2.43;75.45
10462;BME280;5278;42.656;23.374;2023-04-06T02:45:46;94291.78;;;2.77;89.24
10462;BME280;5278;42.656;23.374;2023-04-06T02:48:14;94233.41;;;5.99;100.00
10462;BME280;5278;42.656;23.374;2023-04-06T02:50:43;94264.13;;;7.48;97.08
10462;BME280;5278;42.656;23.374;2023-04-06T02:53:11;94255.59;;;9.47;90.38
10462;BME280;5278;42.656;23.374;2023-04-06T02:55:38;94259.00;;;11.35;75.14
10462;BME280;5278;42.656;23.374;2023-04-06T02:58:05;94251.41;;;10.91;47.15
10462;BME280;5278;42.656;23.374;2023-04-06T03:00:32;94257.84;;;9.94;46.35
10462;BME280;5278;42.656;23.374;2023-04-06T03:02:59;94264.94;;;8.42;48.25
10462;BME280;5278;42.656;23.374;2023-04-06T03:05:27;94271.09;;;7.39;52.11
10462;BME280;5278;42.656;23.374;2023-04-06T03:07:56;94269.66;;;6.56;55.09
10462;BME280;5278;42.656;23.374;2023-04-06T03:10:23;94268.88;;;5.79;58.05
10462;BME280;5278;42.656;23.374;2023-04-06T03:12:50;94284.09;;;5.31;60.31
10462;BME280;5278;42.656;23.374;2023-04-06T03:15:17;94281.44;;;4.79;63.34
10462;BME280;5278;42.656;23.374;2023-04-06T03:17:44;94283.03;;;4.45;65.26
10462;BME280;5278;42.656;23.374;2023-04-06T03:20:12;94277.97;;;4.17;66.71
10462;BME280;5278;42.656;23.374;2023-04-06T03:22:39;94282.84;;;3.93;68.38
10462;BME280;5278;42.656;23.374;2023-04-06T03:25:09;94255.97;;;3.51;69.36
10462;BME280;5278;42.656;23.374;2023-04-06T03:27:36;94283.56;;;3.49;70.64
10462;BME280;5278;42.656;23.374;2023-04-06T03:30:03;94254.84;;;3.26;71.22
10462;BME280;5278;42.656;23.374;2023-04-06T03:32:31;94276.84;;;3.38;71.84
10462;BME280;5278;42.656;23.374;2023-04-06T03:34:58;94261.06;;;3.23;71.80
10462;BME280;5278;42.656;23.374;2023-04-06T03:37:25;94276.22;;;3.07;73.47
10462;BME280;5278;42.656;23.374;2023-04-06T03:39:53;94287.56;;;2.95;74.29
10462;BME280;5278;42.656;23.374;2023-04-06T03:42:21;94259.94;;;2.70;75.01
10462;BME280;5278;42.656;23.374;2023-04-06T03:44:48;94276.13;;;2.80;74.96
10462;BME280;5278;42.656;23.374;2023-04-06T03:47:15;94279.91;;;2.76;75.58
10462;BME280;5278;42.656;23.374;2023-04-06T03:49:42;94278.16;;;2.67;75.77
10462;BME280;5278;42.656;23.374;2023-04-06T03:52:10;94273.16;;;2.75;75.89
10462;BME280;5278;42.656;23.374;2023-04-06T03:54:37;94270.59;;;2.65;75.82
10462;BME280;5278;42.656;23.374;2023-04-06T03:57:04;94269.78;;;2.65;75.72
10462;BME280;5278;42.656;23.374;2023-04-06T03:59:33;94273.31;;;2.64;75.49
10462;BME280;5278;42.656;23.374;2023-04-06T04:02:00;94278.97;;;2.67;75.57
10462;BME280;5278;42.656;23.374;2023-04-06T04:04:27;94273.31;;;2.64;75.78
10462;BME280;5278;42.656;23.374;2023-04-06T04:06:54;94274.38;;;2.61;75.44
10462;BME280;5278;42.656;23.374;2023-04-06T04:09:22;94275.47;;;2.58;76.34
10462;BME280;5278;42.656;23.374;2023-04-06T04:11:50;94291.25;;;2.54;76.55
10462;BME280;5278;42.656;23.374;2023-04-06T04:14:17;94302.28;;;2.54;76.25
10462;BME280;5278;42.656;23.374;2023-04-06T04:16:46;94282.88;;;2.52;76.36
10462;BME280;5278;42.656;23.374;2023-04-06T04:19:14;94256.56;;;2.50;76.21
10462;BME280;5278;42.656;23.374;2023-04-06T04:21:46;94276.53;;;2.66;76.03
10462;BME280;5278;42.656;23.374;2023-04-06T04:24:13;94278.16;;;2.67;76.29
10462;BME280;5278;42.656;23.374;2023-04-06T04:26:41;94287.31;;;2.50;75.97
10462;BME280;5278;42.656;23.374;2023-04-06T04:29:08;94286.78;;;2.75;76.10
10462;BME280;5278;42.656;23.374;2023-04-06T04:31:35;94291.91;;;2.85;75.81
10462;BME280;5278;42.656;23.374;2023-04-06T04:34:04;94284.47;;;2.91;75.43
10462;BME280;5278;42.656;23.374;2023-04-06T04:36:32;94276.09;;;2.89;74.68
10462;BME280;5278;42.656;23.374;2023-04-06T04:38:59;94285.69;;;2.97;75.09
10462;BME280;5278;42.656;23.374;2023-04-06T04:41:27;94282.84;;;3.00;74.20
10462;BME280;5278;42.656;23.374;2023-04-06T04:43:54;94276.47;;;3.04;74.20
10462;BME280;5278;42.656;23.374;2023-04-06T04:46:21;94276.22;;;3.07;74.46
10462;BME280;5278;42.656;23.374;2023-04-06T04:48:49;94244.91;;;2.94;74.41
10462;BME280;5278;42.656;23.374;2023-04-06T04:51:18;94271.72;;;3.28;73.78
10462;BME280;5278;42.656;23.374;2023-04-06T04:53:45;94270.34;;;3.43;73.21
10462;BME280;5278;42.656;23.374;2023-04-06T04:56:12;94283.94;;;3.54;72.29
10462;BME280;5278;42.656;23.374;2023-04-06T04:58:40;94285.94;;;3.60;72.11
10462;BME280;5278;42.656;23.374;2023-04-06T05:01:08;94287.13;;;3.65;71.94
10462;BME280;5278;42.656;23.374;2023-04-06T05:03:37;94276.03;;;3.65;72.15
10462;BME280;5278;42.656;23.374;2023-04-06T05:06:05;94283.22;;;3.61;71.46
10462;BME280;5278;42.656;23.374;2023-04-06T05:08:34;94281.75;;;3.59;71.88
10462;BME280;5278;42.656;23.374;2023-04-06T05:11:01;94272.53;;;3.66;70.77
10462;BME280;5278;42.656;23.374;2023-04-06T05:13:30;94278.88;;;3.71;71.03
10462;BME280;5278;42.656;23.374;2023-04-06T05:15:57;94269.78;;;3.77;71.08
10462;BME280;5278;42.656;23.374;2023-04-06T05:18:24;94273.00;;;3.88;70.68
10462;BME280;5278;42.656;23.374;2023-04-06T05:20:51;94279.28;;;3.94;70.43
10462;BME280;5278;42.656;23.374;2023-04-06T05:23:19;94267.47;;;3.83;70.55
10462;BME280;5278;42.656;23.374;2023-04-06T05:25:48;94289.88;;;3.91;71.32
10462;BME280;5278;42.656;23.374;2023-04-06T05:28:15;94284.44;;;3.94;71.23
10462;BME280;5278;42.656;23.374;2023-04-06T05:30:44;94201.28;;;3.40;70.80
10462;BME280;5278;42.656;23.374;2023-04-06T05:33:12;94294.09;;;4.10;70.77
10462;BME280;5278;42.656;23.374;2023-04-06T05:35:39;94289.19;;;4.16;70.06
10462;BME280;5278;42.656;23.374;2023-04-06T05:38:07;94280.97;;;4.13;70.02
10462;BME280;5278;42.656;23.374;2023-04-06T05:40:35;94287.63;;;4.23;70.17
10462;BME280;5278;42.656;23.374;2023-04-06T05:43:05;94284.94;;;4.25;70.03
10462;BME280;5278;42.656;23.374;2023-04-06T05:45:32;94289.56;;;4.21;69.96
10462;BME280;5278;42.656;23.374;2023-04-06T05:48:00;94287.63;;;4.23;70.76
10462;BME280;5278;42.656;23.374;2023-04-06T05:50:27;94287.38;;;4.26;70.49
10462;BME280;5278;42.656;23.374;2023-04-06T05:52:54;94283.19;;;4.25;70.64
10462;BME280;5278;42.656;23.374;2023-04-06T05:55:21;94245.78;;;3.59;70.30
10462;BME280;5278;42.656;23.374;2023-04-06T05:57:48;94268.81;;;4.32;70.54
10462;BME280;5278;42.656;23.374;2023-04-06T06:00:18;94272.97;;;4.16;71.90
10462;BME280;5278;42.656;23.374;2023-04-06T06:02:45;94273.78;;;4.16;72.07
10462;BME280;5278;42.656;23.374;2023-04-06T06:05:12;94234.22;;;4.00;72.25
10462;BME280;5278;42.656;23.374;2023-04-06T06:07:40;94272.31;;;4.31;71.97
10462;BME280;5278;42.656;23.374;2023-04-06T06:10:08;94268.50;;;4.18;72.23
10462;BME280;5278;42.656;23.374;2023-04-06T06:12:35;94272.16;;;4.15;72.14
10462;BME280;5278;42.656;23.374;2023-04-06T06:15:03;94275.28;;;4.09;72.82
10462;BME280;5278;42.656;23.374;2023-04-06T06:17:32;94279.34;;;4.12;73.53
10462;BME280;5278;42.656;23.374;2023-04-06T06:19:59;94256.66;;;4.07;73.44
10462;BME280;5278;42.656;23.374;2023-04-06T06:22:26;94274.75;;;4.33;72.57
10462;BME280;5278;42.656;23.374;2023-04-06T06:24:53;94210.91;;;4.11;71.88
10462;BME280;5278;42.656;23.374;2023-04-06T06:27:20;94267.34;;;4.65;71.67
10462;BME280;5278;42.656;23.374;2023-04-06T06:29:48;94276.53;;;4.68;72.10
10462;BME280;5278;42.656;23.374;2023-04-06T06:32:15;94267.63;;;4.80;71.21
10462;BME280;5278;42.656;23.374;2023-04-06T06:34:46;94276.78;;;5.00;70.73
10462;BME280;5278;42.656;23.374;2023-04-06T06:37:13;94265.00;;;5.15;70.89
10462;BME280;5278;42.656;23.374;2023-04-06T06:39:40;94271.66;;;5.26;69.93
10462;BME280;5278;42.656;23.374;2023-04-06T06:42:07;94270.03;;;5.51;69.22
10462;BME280;5278;42.656;23.374;2023-04-06T06:44:34;94256.19;;;5.86;67.56
10462;BME280;5278;42.656;23.374;2023-04-06T06:47:01;94245.63;;;6.47;64.52
10462;BME280;5278;42.656;23.374;2023-04-06T06:49:29;94247.75;;;7.00;61.32
10462;BME280;5278;42.656;23.374;2023-04-06T06:51:58;94255.53;;;7.71;58.76
10462;BME280;5278;42.656;23.374;2023-04-06T06:54:25;94245.31;;;9.83;92.01
10462;BME280;5278;42.656;23.374;2023-04-06T06:56:52;94248.59;;;11.63;70.85
10462;BME280;5278;42.656;23.374;2023-04-06T06:59:20;94226.59;;;13.15;53.61
10462;BME280;5278;42.656;23.374;2023-04-06T07:01:49;94224.16;;;13.59;42.22
10462;BME280;5278;42.656;23.374;2023-04-06T07:04:18;94269.13;;;13.74;46.59
10462;BME280;5278;42.656;23.374;2023-04-06T07:06:45;94232.81;;;15.13;41.20
10462;BME280;5278;42.656;23.374;2023-04-06T07:09:14;94196.56;;;16.39;37.04
10462;BME280;5278;42.656;23.374;2023-04-06T07:11:41;94227.72;;;17.13;34.64
10462;BME280;5278;42.656;23.374;2023-04-06T07:14:08;94167.94;;;17.97;32.45
10462;BME280;5278;42.656;23.374;2023-04-06T07:16:37;94199.00;;;18.63;31.31
10462;BME280;5278;42.656;23.374;2023-04-06T07:19:04;94213.34;;;18.44;31.08
10462;BME280;5278;42.656;23.374;2023-04-06T07:21:31;94205.88;;;17.89;31.47
10462;BME280;5278;42.656;23.374;2023-04-06T07:23:58;94215.75;;;17.17;32.01
10462;BME280;5278;42.656;23.374;2023-04-06T07:26:27;94214.84;;;16.64;32.83
10462;BME280;5278;42.656;23.374;2023-04-06T07:28:55;94224.75;;;17.21;32.71
10462;BME280;5278;42.656;23.374;2023-04-06T07:31:22;94214.75;;;17.53;30.82
10462;BME280;5278;42.656;23.374;2023-04-06T07:33:49;94219.97;;;16.22;31.89
10462;BME280;5278;42.656;23.374;2023-04-06T07:36:16;94225.31;;;15.23;33.40
10462;BME280;5278;42.656;23.374;2023-04-06T07:38:45;94238.03;;;14.44;34.64
10462;BME280;5278;42.656;23.374;2023-04-06T07:41:14;94229.31;;;14.63;34.97
10462;BME280;5278;42.656;23.374;2023-04-06T07:43:44;94228.84;;;14.15;35.68
10462;BME280;5278;42.656;23.374;2023-04-06T07:46:11;94235.72;;;14.03;36.24
10462;BME280;5278;42.656;23.374;2023-04-06T07:48:38;94224.75;;;13.68;35.97
10462;BME280;5278;42.656;23.374;2023-04-06T07:51:07;94230.53;;;13.90;35.97
10462;BME280;5278;42.656;23.374;2023-04-06T07:53:39;94228.88;;;14.02;35.91
10462;BME280;5278;42.656;23.374;2023-04-06T07:56:07;94221.81;;;14.15;36.00
10462;BME280;5278;42.656;23.374;2023-04-06T07:58:34;94224.88;;;14.95;34.53
10462;BME280;5278;42.656;23.374;2023-04-06T08:01:03;94214.00;;;16.15;32.84
10462;BME280;5278;42.656;23.374;2023-04-06T08:03:33;94215.91;;;17.04;31.25
10462;BME280;5278;42.656;23.374;2023-04-06T08:06:00;94209.81;;;17.34;30.49
10462;BME280;5278;42.656;23.374;2023-04-06T08:08:27;94207.22;;;16.62;30.90
10462;BME280;5278;42.656;23.374;2023-04-06T08:10:55;94135.44;;;16.27;31.19
10462;BME280;5278;42.656;23.374;2023-04-06T08:13:22;94205.03;;;17.54;30.28
10462;BME280;5278;42.656;23.374;2023-04-06T08:15:49;94196.91;;;18.37;28.72
10462;BME280;5278;42.656;23.374;2023-04-06T08:18:17;94204.50;;;18.22;28.89
10462;BME280;5278;42.656;23.374;2023-04-06T08:20:44;94204.63;;;17.92;29.25
10462;BME280;5278;42.656;23.374;2023-04-06T08:23:11;94205.41;;;18.04;29.43
10462;BME280;5278;42.656;23.374;2023-04-06T08:25:39;94210.34;;;18.64;28.66
10462;BME280;5278;42.656;23.374;2023-04-06T08:28:06;94207.56;;;19.27;27.57
10462;BME280;5278;42.656;23.374;2023-04-06T08:30:35;94209.34;;;19.55;26.65
10462;BME280;5278;42.656;23.374;2023-04-06T08:33:02;94206.81;;;20.15;25.90
10462;BME280;5278;42.656;23.374;2023-04-06T08:35:31;94202.91;;;21.10;25.31
10462;BME280;5278;42.656;23.374;2023-04-06T08:38:00;94189.66;;;21.95;24.48
10462;BME280;5278;42.656;23.374;2023-04-06T08:40:27;94187.13;;;22.15;23.39
10462;BME280;5278;42.656;23.374;2023-04-06T08:42:55;94195.59;;;22.22;23.60
10462;BME280;5278;42.656;23.374;2023-04-06T08:45:24;94198.06;;;23.01;23.28
10462;BME280;5278;42.656;23.374;2023-04-06T08:47:51;94202.63;;;23.36;22.55
10462;BME280;5278;42.656;23.374;2023-04-06T08:50:19;94195.63;;;22.27;22.30
10462;BME280;5278;42.656;23.374;2023-04-06T08:52:49;94187.13;;;22.15;22.64
10462;BME280;5278;42.656;23.374;2023-04-06T08:55:16;94211.88;;;21.99;23.23
10462;BME280;5278;42.656;23.374;2023-04-06T08:57:44;94195.16;;;21.03;23.29
10462;BME280;5278;42.656;23.374;2023-04-06T09:00:13;94181.84;;;21.15;23.54
10462;BME280;5278;42.656;23.374;2023-04-06T09:02:43;94200.97;;;20.51;24.67
10462;BME280;5278;42.656;23.374;2023-04-06T09:05:10;94194.53;;;21.44;23.58
10462;BME280;5278;42.656;23.374;2023-04-06T09:07:37;94193.91;;;22.53;22.88
10462;BME280;5278;42.656;23.374;2023-04-06T09:10:08;94130.75;;;23.12;21.68
10462;BME280;5278;42.656;23.374;2023-04-06T09:12:35;94145.63;;;23.74;20.53
10462;BME280;5278;42.656;23.374;2023-04-06T09:15:03;94094.19;;;23.09;20.86
10462;BME280;5278;42.656;23.374;2023-04-06T09:17:31;94182.75;;;22.41;22.32
10462;BME280;5278;42.656;23.374;2023-04-06T09:19:59;94187.34;;;22.66;22.21
10462;BME280;5278;42.656;23.374;2023-04-06T09:22:35;94179.03;;;23.25;21.75
10462;BME280;5278;42.656;23.374;2023-04-06T09:25:03;94172.38;;;24.03;20.93
10462;BME280;5278;42.656;23.374;2023-04-06T09:27:32;94170.81;;;23.72;20.42
10462;BME280;5278;42.656;23.374;2023-04-06T09:30:04;94179.03;;;23.20;21.69
10462;BME280;5278;42.656;23.374;2023-04-06T09:32:32;94139.78;;;23.42;21.38
10462;BME280;5278;42.656;23.374;2023-04-06T09:35:06;94177.75;;;22.55;21.96
10462;BME280;5278;42.656;23.374;2023-04-06T09:37:33;94180.31;;;22.35;22.35
10462;BME280;5278;42.656;23.374;2023-04-06T09:40:04;94184.03;;;21.55;23.46
10462;BME280;5278;42.656;23.374;2023-04-06T09:42:34;94182.19;;;20.96;24.10
10462;BME280;5278;42.656;23.374;2023-04-06T09:45:02;94169.94;;;20.63;24.04
10462;BME280;5278;42.656;23.374;2023-04-06T09:47:31;94172.31;;;20.87;23.74
10462;BME280;5278;42.656;23.374;2023-04-06T09:50:00;94178.28;;;22.00;22.80
10462;BME280;5278;42.656;23.374;2023-04-06T09:52:30;94170.44;;;22.77;21.89
10462;BME280;5278;42.656;23.374;2023-04-06T09:55:02;94168.88;;;22.76;21.82
10462;BME280;5278;42.656;23.374;2023-04-06T09:57:32;94161.97;;;21.76;22.56
10462;BME280;5278;42.656;23.374;2023-04-06T10:00:04;94190.28;;;20.41;24.25
10462;BME280;5278;42.656;23.374;2023-04-06T10:02:40;94178.56;;;21.08;23.62
10462;BME280;5278;42.656;23.374;2023-04-06T10:05:17;94176.25;;;22.17;22.27
10462;BME280;5278;42.656;23.374;2023-04-06T10:07:48;94169.22;;;23.15;21.58
10462;BME280;5278;42.656;23.374;2023-04-06T10:10:17;94171.88;;;23.20;20.85
10462;BME280;5278;42.656;23.374;2023-04-06T10:12:45;94164.75;;;23.46;21.25
10462;BME280;5278;42.656;23.374;2023-04-06T10:15:17;94170.81;;;22.39;21.71
10462;BME280;5278;42.656;23.374;2023-04-06T10:17:44;94158.81;;;22.93;21.62
10462;BME280;5278;42.656;23.374;2023-04-06T10:20:15;94164.72;;;23.21;20.56
10462;BME280;5278;42.656;23.374;2023-04-06T10:22:52;94171.59;;;23.87;20.10
10462;BME280;5278;42.656;23.374;2023-04-06T10:25:32;94154.59;;;23.93;19.96
10462;BME280;5278;42.656;23.374;2023-04-06T10:28:00;94173.47;;;23.62;20.50
10462;BME280;5278;42.656;23.374;2023-04-06T10:30:30;94169.50;;;23.69;20.12
10462;BME280;5278;42.656;23.374;2023-04-06T10:32:59;94172.09;;;24.25;19.98
10462;BME280;5278;42.656;23.374;2023-04-06T10:35:36;94178.41;;;24.44;19.83
10462;BME280;5278;42.656;23.374;2023-04-06T10:38:05;94160.22;;;23.62;20.13
10462;BME280;5278;42.656;23.374;2023-04-06T10:40:35;94177.81;;;22.08;21.25
10462;BME280;5278;42.656;23.374;2023-04-06T10:43:10;94186.47;;;21.98;21.72
10462;BME280;5278;42.656;23.374;2023-04-06T10:45:40;94187.47;;;21.23;22.26
10462;BME280;5278;42.656;23.374;2023-04-06T10:48:14;94184.50;;;20.44;23.50
10462;BME280;5278;42.656;23.374;2023-04-06T10:50:43;94193.41;;;19.33;24.41
10462;BME280;5278;42.656;23.374;2023-04-06T10:53:11;94171.75;;;18.98;25.18
10462;BME280;5278;42.656;23.374;2023-04-06T10:55:39;94184.31;;;18.39;25.95
10462;BME280;5278;42.656;23.374;2023-04-06T10:58:06;94185.56;;;19.05;25.41
10462;BME280;5278;42.656;23.374;2023-04-06T11:00:34;94175.59;;;18.62;25.46
10462;BME280;5278;42.656;23.374;2023-04-06T11:03:03;94181.63;;;18.22;26.37
10462;BME280;5278;42.656;23.374;2023-04-06T11:05:29;94172.41;;;18.08;26.04
10462;BME280;5278;42.656;23.374;2023-04-06T11:07:57;94176.03;;;17.49;26.86
10462;BME280;5278;42.656;23.374;2023-04-06T11:10:24;94181.94;;;16.68;28.45
10462;BME280;5278;42.656;23.374;2023-04-06T11:12:54;94174.13;;;16.91;28.38
10462;BME280;5278;42.656;23.374;2023-04-06T11:15:21;94165.59;;;16.66;28.71
10462;BME280;5278;42.656;23.374;2023-04-06T11:17:49;94171.78;;;15.69;29.89
10462;BME280;5278;42.656;23.374;2023-04-06T11:20:17;94174.31;;;15.01;31.04
10462;BME280;5278;42.656;23.374;2023-04-06T11:22:51;94146.56;;;15.00;30.82
10462;BME280;5278;42.656;23.374;2023-04-06T11:25:18;94187.38;;;15.07;31.01
10462;BME280;5278;42.656;23.374;2023-04-06T11:27:46;94161.00;;;15.09;31.01
10462;BME280;5278;42.656;23.374;2023-04-06T11:30:16;94170.50;;;14.34;31.78
10462;BME280;5278;42.656;23.374;2023-04-06T11:32:44;94171.31;;;13.77;33.16
10462;BME280;5278;42.656;23.374;2023-04-06T11:35:14;94152.53;;;13.29;34.11
10462;BME280;5278;42.656;23.374;2023-04-06T11:37:48;94172.75;;;13.40;33.66
10462;BME280;5278;42.656;23.374;2023-04-06T11:40:16;94179.38;;;12.83;34.66
10462;BME280;5278;42.656;23.374;2023-04-06T11:42:52;94175.53;;;12.60;35.15
10462;BME280;5278;42.656;23.374;2023-04-06T11:45:20;94174.84;;;12.31;35.30
10462;BME280;5278;42.656;23.374;2023-04-06T11:47:56;94169.44;;;12.20;36.04
10462;BME280;5278;42.656;23.374;2023-04-06T11:50:25;94167.34;;;11.95;36.25
10462;BME280;5278;42.656;23.374;2023-04-06T11:53:00;94172.09;;;11.57;37.28
10462;BME280;5278;42.656;23.374;2023-04-06T11:55:28;94170.91;;;11.26;38.42
10462;BME280;5278;42.656;23.374;2023-04-06T11:57:57;94176.16;;;10.83;39.17
10462;BME280;5278;42.656;23.374;2023-04-06T12:00:24;94158.69;;;10.49;39.44
10462;BME280;5278;42.656;23.374;2023-04-06T12:02:51;94174.06;;;10.29;40.41
10462;BME280;5278;42.656;23.374;2023-04-06T12:05:18;94171.78;;;10.20;40.04
10462;BME280;5278;42.656;23.374;2023-04-06T12:07:45;94157.78;;;10.06;41.25
10462;BME280;5278;42.656;23.374;2023-04-06T12:10:14;94172.88;;;9.96;41.65
10462;BME280;5278;42.656;23.374;2023-04-06T12:12:41;94179.78;;;9.74;42.23
10462;BME280;5278;42.656;23.374;2023-04-06T12:15:09;94180.59;;;9.75;42.71
10462;BME280;5278;42.656;23.374;2023-04-06T12:17:39;94170.00;;;9.76;42.89
10462;BME280;5278;42.656;23.374;2023-04-06T12:20:06;94184.69;;;9.69;43.08
10462;BME280;5278;42.656;23.374;2023-04-06T12:22:33;94168.50;;;9.52;43.80
10462;BME280;5278;42.656;23.374;2023-04-06T12:25:02;94177.78;;;9.32;44.14
10462;BME280;5278;42.656;23.374;2023-04-06T12:27:31;94166.44;;;9.19;43.76
10462;BME280;5278;42.656;23.374;2023-04-06T12:29:59;94181.44;;;9.08;44.59
10462;BME280;5278;42.656;23.374;2023-04-06T12:32:26;94181.69;;;8.99;44.72
10462;BME280;5278;42.656;23.374;2023-04-06T12:34:53;94172.94;;;9.00;45.16
10462;BME280;5278;42.656;23.374;2023-04-06T12:37:21;94174.38;;;9.17;45.26
10462;BME280;5278;42.656;23.374;2023-04-06T12:39:48;94161.63;;;9.30;44.46
10462;BME280;5278;42.656;23.374;2023-04-06T12:42:15;94162.34;;;9.54;44.89
10462;BME280;5278;42.656;23.374;2023-04-06T12:44:44;94161.63;;;9.74;43.47
10462;BME280;5278;42.656;23.374;2023-04-06T12:47:12;94159.13;;;9.81;42.98
10462;BME280;5278;42.656;23.374;2023-04-06T12:49:40;94158.31;;;9.80;43.12
10462;BME280;5278;42.656;23.374;2023-04-06T12:52:08;94157.28;;;9.81;42.71
10462;BME280;5278;42.656;23.374;2023-04-06T12:54:35;94153.97;;;9.87;42.56
10462;BME280;5278;42.656;23.374;2023-04-06T12:57:02;94148.44;;;9.90;42.17
10462;BME280;5278;42.656;23.374;2023-04-06T12:59:29;94150.06;;;9.77;42.79
10462;BME280;5278;42.656;23.374;2023-04-06T13:02:03;94142.84;;;9.58;42.64
10462;BME280;5278;42.656;23.374;2023-04-06T13:04:30;94142.75;;;9.22;43.29
10462;BME280;5278;42.656;23.374;2023-04-06T13:06:57;94153.47;;;9.19;43.82
10462;BME280;5278;42.656;23.374;2023-04-06T13:09:25;94139.44;;;9.13;44.51
10462;BME280;5278;42.656;23.374;2023-04-06T13:11:52;94141.03;;;8.85;45.00